sensor_id;sensor_type;location;lat;lon;timestamp;P1;durP1;ratioP1;P2;durP2;ratioP2
14167;SDS011;7163;50.626;12.922;2023-08-06T00:04:43;11.03;;;8.20;;
14167;SDS011;7163;50.626;12.922;2023-08-06T00:09:43;12.63;;;8.33;;
14167;SDS011;7163;50.626;12.922;2023-08-06T00:14:44;13.00;;;8.10;;
14167;SDS011;7163;50.626;12.922;2023-08-06T00:19:45;11.10;;;8.50;;
14167;SDS011;7163;50.626;12.922;2023-08-06T00:24:45;11.27;;;8.40;;
14167;SDS011;7163;50.626;12.922;2023-08-06T00:29:46;12.37;;;8.37;;
14167;SDS011;7163;50.626;12.922;2023-08-06T00:34:46;12.07;;;8.40;;
14167;SDS011;7163;50.626;12.922;2023-08-06T00:39:49;10.80;;;7.50;;
14167;SDS011;7163;50.626;12.922;2023-08-06T00:44:50;9.80;;;6.97;;
14167;SDS011;7163;50.626;12.922;2023-08-06T00:49:50;10.20;;;7.57;;
14167;SDS011;7163;50.626;12.922;2023-08-06T00:54:50;8.80;;;7.07;;
14167;SDS011;7163;50.626;12.922;2023-08-06T00:59:51;10.13;;;7.77;;
14167;SDS011;7163;50.626;12.922;2023-08-06T01:04:52;11.97;;;8.07;;
14167;SDS011;7163;50.626;12.922;2023-08-06T01:10:06;10.13;;;7.80;;
14167;SDS011;7163;50.626;12.922;2023-08-06T01:15:23;9.83;;;7.37;;
14167;SDS011;7163;50.626;12.922;2023-08-06T01:20:28;9.50;;;7.07;;
14167;SDS011;7163;50.626;12.922;2023-08-06T01:30:56;9.00;;;7.37;;
14167;SDS011;7163;50.626;12.922;2023-08-06T01:35:59;9.07;;;6.93;;
14167;SDS011;7163;50.626;12.922;2023-08-06T01:40:59;9.43;;;6.47;;
14167;SDS011;7163;50.626;12.922;2023-08-06T01:46:00;8.57;;;6.57;;
14167;SDS011;7163;50.626;12.922;2023-08-06T01:51:00;10.30;;;6.20;;
14167;SDS011;7163;50.626;12.922;2023-08-06T01:56:01;8.73;;;6.10;;
14167;SDS011;7163;50.626;12.922;2023-08-06T02:01:02;9.87;;;6.40;;
14167;SDS011;7163;50.626;12.922;2023-08-06T02:06:02;9.63;;;6.23;;
14167;SDS011;7163;50.626;12.922;2023-08-06T02:11:03;10.40;;;6.10;;
14167;SDS011;7163;50.626;12.922;2023-08-06T02:16:06;8.53;;;6.20;;
14167;SDS011;7163;50.626;12.922;2023-08-06T02:21:08;8.40;;;5.90;;
14167;SDS011;7163;50.626;12.922;2023-08-06T02:26:08;11.27;;;6.10;;
14167;SDS011;7163;50.626;12.922;2023-08-06T02:31:09;8.23;;;5.57;;
14167;SDS011;7163;50.626;12.922;2023-08-06T02:36:09;9.03;;;6.10;;
14167;SDS011;7163;50.626;12.922;2023-08-06T02:41:10;10.90;;;7.23;;
14167;SDS011;7163;50.626;12.922;2023-08-06T02:46:10;9.93;;;7.53;;
14167;SDS011;7163;50.626;12.922;2023-08-06T02:51:10;9.60;;;7.20;;
14167;SDS011;7163;50.626;12.922;2023-08-06T02:56:11;8.47;;;6.77;;
14167;SDS011;7163;50.626;12.922;2023-08-06T03:01:11;10.30;;;6.23;;
14167;SDS011;7163;50.626;12.922;2023-08-06T03:06:12;9.90;;;7.33;;
14167;SDS011;7163;50.626;12.922;2023-08-06T03:11:12;11.97;;;7.70;;
14167;SDS011;7163;50.626;12.922;2023-08-06T03:16:16;11.30;;;7.30;;
14167;SDS011;7163;50.626;12.922;2023-08-06T03:21:16;8.53;;;6.57;;
14167;SDS011;7163;50.626;12.922;2023-08-06T03:26:17;10.37;;;6.73;;
14167;SDS011;7163;50.626;12.922;2023-08-06T03:31:17;9.50;;;6.40;;
14167;SDS011;7163;50.626;12.922;2023-08-06T03:36:18;8.17;;;6.03;;
14167;SDS011;7163;50.626;12.922;2023-08-06T03:41:18;9.27;;;6.80;;
14167;SDS011;7163;50.626;12.922;2023-08-06T03:46:19;7.83;;;6.00;;
14167;SDS011;7163;50.626;12.922;2023-08-06T03:51:19;9.27;;;6.50;;
14167;SDS011;7163;50.626;12.922;2023-08-06T03:56:19;7.50;;;6.20;;
14167;SDS011;7163;50.626;12.922;2023-08-06T04:01:20;8.13;;;6.50;;
14167;SDS011;7163;50.626;12.922;2023-08-06T04:06:20;10.13;;;6.03;;
14167;SDS011;7163;50.626;12.922;2023-08-06T04:11:21;12.30;;;6.00;;
14167;SDS011;7163;50.626;12.922;2023-08-06T04:16:21;8.90;;;6.17;;
14167;SDS011;7163;50.626;12.922;2023-08-06T04:21:21;8.37;;;5.77;;
14167;SDS011;7163;50.626;12.922;2023-08-06T04:26:22;8.87;;;6.50;;
14167;SDS011;7163;50.626;12.922;2023-08-06T04:31:22;7.30;;;5.97;;
14167;SDS011;7163;50.626;12.922;2023-08-06T04:36:26;10.37;;;6.67;;
14167;SDS011;7163;50.626;12.922;2023-08-06T04:41:26;8.97;;;7.27;;
14167;SDS011;7163;50.626;12.922;2023-08-06T04:46:27;9.53;;;6.27;;
14167;SDS011;7163;50.626;12.922;2023-08-06T04:51:27;11.67;;;6.60;;
14167;SDS011;7163;50.626;12.922;2023-08-06T04:56:27;8.67;;;6.40;;
14167;SDS011;7163;50.626;12.922;2023-08-06T05:01:28;9.37;;;7.20;;
14167;SDS011;7163;50.626;12.922;2023-08-06T05:06:29;8.67;;;6.67;;
14167;SDS011;7163;50.626;12.922;2023-08-06T05:11:29;7.80;;;6.57;;
14167;SDS011;7163;50.626;12.922;2023-08-06T05:16:30;10.97;;;6.37;;
14167;SDS011;7163;50.626;12.922;2023-08-06T05:21:30;7.93;;;6.10;;
14167;SDS011;7163;50.626;12.922;2023-08-06T05:26:38;9.13;;;6.47;;
14167;SDS011;7163;50.626;12.922;2023-08-06T05:31:54;8.77;;;6.80;;
14167;SDS011;7163;50.626;12.922;2023-08-06T05:36:57;8.13;;;6.17;;
14167;SDS011;7163;50.626;12.922;2023-08-06T05:41:57;8.07;;;6.40;;
14167;SDS011;7163;50.626;12.922;2023-08-06T05:46:58;7.73;;;6.00;;
14167;SDS011;7163;50.626;12.922;2023-08-06T05:51:59;9.30;;;5.77;;
14167;SDS011;7163;50.626;12.922;2023-08-06T05:56:59;7.00;;;5.50;;
14167;SDS011;7163;50.626;12.922;2023-08-06T06:02:00;5.53;;;4.60;;
14167;SDS011;7163;50.626;12.922;2023-08-06T06:07:00;5.97;;;5.17;;
14167;SDS011;7163;50.626;12.922;2023-08-06T06:12:51;4.83;;;4.33;;
14167;SDS011;7163;50.626;12.922;2023-08-06T06:17:58;6.63;;;4.33;;
14167;SDS011;7163;50.626;12.922;2023-08-06T06:23:01;5.00;;;4.50;;
14167;SDS011;7163;50.626;12.922;2023-08-06T06:28:07;5.03;;;3.90;;
14167;SDS011;7163;50.626;12.922;2023-08-06T06:33:08;4.97;;;4.03;;
14167;SDS011;7163;50.626;12.922;2023-08-06T06:38:08;5.90;;;4.40;;
14167;SDS011;7163;50.626;12.922;2023-08-06T06:43:18;4.37;;;3.90;;
14167;SDS011;7163;50.626;12.922;2023-08-06T06:48:27;7.87;;;4.73;;
14167;SDS011;7163;50.626;12.922;2023-08-06T06:53:38;4.03;;;3.60;;
14167;SDS011;7163;50.626;12.922;2023-08-06T06:58:38;3.93;;;3.50;;
14167;SDS011;7163;50.626;12.922;2023-08-06T07:03:41;4.00;;;3.40;;
14167;SDS011;7163;50.626;12.922;2023-08-06T07:08:41;4.47;;;3.60;;
14167;SDS011;7163;50.626;12.922;2023-08-06T07:13:45;3.97;;;3.20;;
14167;SDS011;7163;50.626;12.922;2023-08-06T07:18:45;4.23;;;3.40;;
14167;SDS011;7163;50.626;12.922;2023-08-06T07:23:46;4.33;;;3.60;;
14167;SDS011;7163;50.626;12.922;2023-08-06T07:28:52;4.93;;;3.63;;
14167;SDS011;7163;50.626;12.922;2023-08-06T07:33:53;5.43;;;3.60;;
14167;SDS011;7163;50.626;12.922;2023-08-06T07:39:03;6.23;;;4.60;;
14167;SDS011;7163;50.626;12.922;2023-08-06T07:44:07;7.67;;;4.67;;
14167;SDS011;7163;50.626;12.922;2023-08-06T07:54:36;6.47;;;4.13;;
14167;SDS011;7163;50.626;12.922;2023-08-06T07:59:58;5.10;;;3.53;;
14167;SDS011;7163;50.626;12.922;2023-08-06T08:04:59;3.60;;;3.20;;
14167;SDS011;7163;50.626;12.922;2023-08-06T08:10:25;3.63;;;3.00;;
14167;SDS011;7163;50.626;12.922;2023-08-06T08:15:27;3.80;;;3.10;;
14167;SDS011;7163;50.626;12.922;2023-08-06T08:20:35;4.67;;;3.20;;
14167;SDS011;7163;50.626;12.922;2023-08-06T08:25:54;3.80;;;3.40;;
14167;SDS011;7163;50.626;12.922;2023-08-06T08:30:55;4.63;;;2.80;;
14167;SDS011;7163;50.626;12.922;2023-08-06T08:35:55;6.47;;;3.10;;
14167;SDS011;7163;50.626;12.922;2023-08-06T08:40:55;5.37;;;2.90;;
14167;SDS011;7163;50.626;12.922;2023-08-06T08:46:10;4.13;;;2.70;;
14167;SDS011;7163;50.626;12.922;2023-08-06T08:51:30;3.00;;;2.70;;
14167;SDS011;7163;50.626;12.922;2023-08-06T08:56:37;2.95;;;2.50;;
14167;SDS011;7163;50.626;12.922;2023-08-06T09:01:48;3.65;;;2.97;;
14167;SDS011;7163;50.626;12.922;2023-08-06T09:06:51;3.92;;;2.58;;
14167;SDS011;7163;50.626;12.922;2023-08-06T09:11:53;3.08;;;2.47;;
14167;SDS011;7163;50.626;12.922;2023-08-06T09:16:56;3.67;;;2.63;;
14167;SDS011;7163;50.626;12.922;2023-08-06T09:22:18;2.78;;;2.50;;
14167;SDS011;7163;50.626;12.922;2023-08-06T09:27:22;3.45;;;2.50;;
14167;SDS011;7163;50.626;12.922;2023-08-06T09:32:52;3.78;;;2.47;;
14167;SDS011;7163;50.626;12.922;2023-08-06T09:38:08;3.47;;;2.20;;
14167;SDS011;7163;50.626;12.922;2023-08-06T09:43:31;5.65;;;2.58;;
14167;SDS011;7163;50.626;12.922;2023-08-06T09:49:27;3.03;;;2.20;;
14167;SDS011;7163;50.626;12.922;2023-08-06T09:55:07;3.00;;;2.40;;
14167;SDS011;7163;50.626;12.922;2023-08-06T10:00:09;2.33;;;2.13;;
14167;SDS011;7163;50.626;12.922;2023-08-06T10:05:18;4.28;;;2.22;;
14167;SDS011;7163;50.626;12.922;2023-08-06T10:10:24;5.10;;;2.50;;
14167;SDS011;7163;50.626;12.922;2023-08-06T10:15:28;5.15;;;2.40;;
14167;SDS011;7163;50.626;12.922;2023-08-06T10:20:36;2.78;;;2.20;;
14167;SDS011;7163;50.626;12.922;2023-08-06T10:25:40;5.22;;;2.40;;
14167;SDS011;7163;50.626;12.922;2023-08-06T10:30:45;3.60;;;2.45;;
14167;SDS011;7163;50.626;12.922;2023-08-06T10:35:53;4.72;;;2.40;;
14167;SDS011;7163;50.626;12.922;2023-08-06T10:41:01;2.88;;;2.30;;
14167;SDS011;7163;50.626;12.922;2023-08-06T10:46:04;5.63;;;2.13;;
14167;SDS011;7163;50.626;12.922;2023-08-06T10:51:20;5.25;;;1.95;;
14167;SDS011;7163;50.626;12.922;2023-08-06T10:56:26;2.50;;;2.20;;
14167;SDS011;7163;50.626;12.922;2023-08-06T11:01:31;3.10;;;2.30;;
14167;SDS011;7163;50.626;12.922;2023-08-06T11:06:57;3.33;;;2.10;;
14167;SDS011;7163;50.626;12.922;2023-08-06T11:11:57;3.75;;;2.50;;
14167;SDS011;7163;50.626;12.922;2023-08-06T11:16:57;2.85;;;2.05;;
14167;SDS011;7163;50.626;12.922;2023-08-06T11:22:09;3.55;;;2.10;;
14167;SDS011;7163;50.626;12.922;2023-08-06T11:27:27;2.50;;;1.98;;
14167;SDS011;7163;50.626;12.922;2023-08-06T11:32:47;3.67;;;2.10;;
14167;SDS011;7163;50.626;12.922;2023-08-06T11:37:54;2.13;;;2.00;;
14167;SDS011;7163;50.626;12.922;2023-08-06T11:42:55;2.63;;;1.90;;
14167;SDS011;7163;50.626;12.922;2023-08-06T11:47:56;2.72;;;1.77;;
14167;SDS011;7163;50.626;12.922;2023-08-06T11:53:06;4.47;;;2.08;;
14167;SDS011;7163;50.626;12.922;2023-08-06T11:58:18;2.72;;;1.70;;
14167;SDS011;7163;50.626;12.922;2023-08-06T12:03:19;2.20;;;2.00;;
14167;SDS011;7163;50.626;12.922;2023-08-06T12:08:20;2.38;;;2.00;;
14167;SDS011;7163;50.626;12.922;2023-08-06T12:13:29;7.07;;;2.17;;
14167;SDS011;7163;50.626;12.922;2023-08-06T12:18:32;3.15;;;2.00;;
14167;SDS011;7163;50.626;12.922;2023-08-06T12:23:36;2.60;;;1.90;;
14167;SDS011;7163;50.626;12.922;2023-08-06T12:33:49;2.47;;;1.83;;
14167;SDS011;7163;50.626;12.922;2023-08-06T12:38:50;2.20;;;1.53;;
14167;SDS011;7163;50.626;12.922;2023-08-06T12:44:12;2.90;;;1.70;;
14167;SDS011;7163;50.626;12.922;2023-08-06T12:49:37;3.70;;;2.17;;
14167;SDS011;7163;50.626;12.922;2023-08-06T12:54:50;3.08;;;2.22;;
14167;SDS011;7163;50.626;12.922;2023-08-06T12:59:56;2.95;;;1.95;;
14167;SDS011;7163;50.626;12.922;2023-08-06T13:04:58;2.67;;;2.03;;
14167;SDS011;7163;50.626;12.922;2023-08-06T13:09:59;4.78;;;2.00;;
14167;SDS011;7163;50.626;12.922;2023-08-06T13:14:59;2.47;;;1.95;;
14167;SDS011;7163;50.626;12.922;2023-08-06T13:20:21;3.28;;;1.90;;
14167;SDS011;7163;50.626;12.922;2023-08-06T13:25:23;3.13;;;1.92;;
14167;SDS011;7163;50.626;12.922;2023-08-06T13:30:24;4.95;;;2.08;;
14167;SDS011;7163;50.626;12.922;2023-08-06T13:35:25;3.22;;;2.03;;
14167;SDS011;7163;50.626;12.922;2023-08-06T13:40:25;3.47;;;2.15;;
14167;SDS011;7163;50.626;12.922;2023-08-06T13:45:26;3.13;;;2.20;;
14167;SDS011;7163;50.626;12.922;2023-08-06T13:50:26;2.08;;;1.75;;
14167;SDS011;7163;50.626;12.922;2023-08-06T13:55:27;2.97;;;2.22;;
14167;SDS011;7163;50.626;12.922;2023-08-06T14:00:28;2.10;;;1.75;;
14167;SDS011;7163;50.626;12.922;2023-08-06T14:05:29;2.08;;;1.70;;
14167;SDS011;7163;50.626;12.922;2023-08-06T14:10:29;2.42;;;1.92;;
14167;SDS011;7163;50.626;12.922;2023-08-06T14:15:29;2.85;;;1.75;;
14167;SDS011;7163;50.626;12.922;2023-08-06T14:20:30;2.42;;;1.70;;
14167;SDS011;7163;50.626;12.922;2023-08-06T14:25:31;2.80;;;1.80;;
14167;SDS011;7163;50.626;12.922;2023-08-06T14:30:32;3.83;;;1.83;;
14167;SDS011;7163;50.626;12.922;2023-08-06T14:35:33;2.80;;;1.88;;
14167;SDS011;7163;50.626;12.922;2023-08-06T14:40:34;3.67;;;2.17;;
14167;SDS011;7163;50.626;12.922;2023-08-06T14:45:38;4.30;;;2.20;;
14167;SDS011;7163;50.626;12.922;2023-08-06T14:50:39;3.88;;;2.78;;
14167;SDS011;7163;50.626;12.922;2023-08-06T14:55:42;4.07;;;2.50;;
14167;SDS011;7163;50.626;12.922;2023-08-06T15:00:42;5.93;;;3.88;;
14167;SDS011;7163;50.626;12.922;2023-08-06T15:05:43;5.30;;;3.53;;
14167;SDS011;7163;50.626;12.922;2023-08-06T15:10:51;5.22;;;3.28;;
14167;SDS011;7163;50.626;12.922;2023-08-06T15:15:52;4.57;;;3.27;;
14167;SDS011;7163;50.626;12.922;2023-08-06T15:20:53;5.57;;;3.20;;
14167;SDS011;7163;50.626;12.922;2023-08-06T15:25:54;3.97;;;2.80;;
14167;SDS011;7163;50.626;12.922;2023-08-06T15:30:55;3.67;;;2.77;;
14167;SDS011;7163;50.626;12.922;2023-08-06T15:36:17;3.63;;;2.50;;
14167;SDS011;7163;50.626;12.922;2023-08-06T15:42:05;3.63;;;2.45;;
14167;SDS011;7163;50.626;12.922;2023-08-06T15:47:06;2.65;;;1.83;;
14167;SDS011;7163;50.626;12.922;2023-08-06T15:52:40;5.30;;;2.50;;
14167;SDS011;7163;50.626;12.922;2023-08-06T15:58:12;3.28;;;1.95;;
14167;SDS011;7163;50.626;12.922;2023-08-06T16:03:13;1.73;;;1.60;;
14167;SDS011;7163;50.626;12.922;2023-08-06T16:08:15;2.05;;;1.48;;
14167;SDS011;7163;50.626;12.922;2023-08-06T16:13:16;2.42;;;1.70;;
14167;SDS011;7163;50.626;12.922;2023-08-06T16:18:16;1.50;;;1.40;;
14167;SDS011;7163;50.626;12.922;2023-08-06T16:28:32;2.33;;;1.80;;
14167;SDS011;7163;50.626;12.922;2023-08-06T16:33:33;5.80;;;2.03;;
14167;SDS011;7163;50.626;12.922;2023-08-06T16:38:33;1.60;;;1.50;;
14167;SDS011;7163;50.626;12.922;2023-08-06T16:43:34;3.42;;;1.90;;
14167;SDS011;7163;50.626;12.922;2023-08-06T16:48:34;2.35;;;1.40;;
14167;SDS011;7163;50.626;12.922;2023-08-06T16:53:36;2.45;;;1.55;;
14167;SDS011;7163;50.626;12.922;2023-08-06T16:58:36;1.63;;;1.35;;
14167;SDS011;7163;50.626;12.922;2023-08-06T17:03:37;2.22;;;1.30;;
14167;SDS011;7163;50.626;12.922;2023-08-06T17:08:38;2.17;;;1.48;;
14167;SDS011;7163;50.626;12.922;2023-08-06T17:13:39;1.88;;;1.40;;
14167;SDS011;7163;50.626;12.922;2023-08-06T17:18:39;3.13;;;1.60;;
14167;SDS011;7163;50.626;12.922;2023-08-06T17:23:41;1.83;;;1.20;;
14167;SDS011;7163;50.626;12.922;2023-08-06T17:28:42;2.40;;;1.40;;
14167;SDS011;7163;50.626;12.922;2023-08-06T17:33:42;1.25;;;1.23;;
14167;SDS011;7163;50.626;12.922;2023-08-06T17:38:44;1.52;;;1.42;;
14167;SDS011;7163;50.626;12.922;2023-08-06T17:43:44;1.35;;;1.25;;
14167;SDS011;7163;50.626;12.922;2023-08-06T17:48:45;5.00;;;1.63;;
14167;SDS011;7163;50.626;12.922;2023-08-06T17:53:45;1.43;;;1.33;;
14167;SDS011;7163;50.626;12.922;2023-08-06T17:58:46;2.40;;;1.90;;
14167;SDS011;7163;50.626;12.922;2023-08-06T18:03:46;4.27;;;2.40;;
14167;SDS011;7163;50.626;12.922;2023-08-06T18:08:49;2.53;;;1.60;;
14167;SDS011;7163;50.626;12.922;2023-08-06T18:13:50;4.03;;;2.20;;
14167;SDS011;7163;50.626;12.922;2023-08-06T18:18:50;1.70;;;1.60;;
14167;SDS011;7163;50.626;12.922;2023-08-06T18:23:53;1.73;;;1.30;;
14167;SDS011;7163;50.626;12.922;2023-08-06T18:28:54;2.13;;;1.37;;
14167;SDS011;7163;50.626;12.922;2023-08-06T18:33:55;1.67;;;1.30;;
14167;SDS011;7163;50.626;12.922;2023-08-06T18:38:55;2.60;;;1.80;;
14167;SDS011;7163;50.626;12.922;2023-08-06T18:43:55;2.50;;;2.00;;
14167;SDS011;7163;50.626;12.922;2023-08-06T18:48:56;4.67;;;3.10;;
14167;SDS011;7163;50.626;12.922;2023-08-06T18:53:56;1.73;;;1.63;;
14167;SDS011;7163;50.626;12.922;2023-08-06T18:58:57;2.03;;;1.70;;
14167;SDS011;7163;50.626;12.922;2023-08-06T19:03:57;3.70;;;2.20;;
14167;SDS011;7163;50.626;12.922;2023-08-06T19:08:58;4.77;;;2.90;;
14167;SDS011;7163;50.626;12.922;2023-08-06T19:13:58;4.73;;;2.60;;
14167;SDS011;7163;50.626;12.922;2023-08-06T19:18:59;3.77;;;2.30;;
14167;SDS011;7163;50.626;12.922;2023-08-06T19:23:59;1.40;;;1.30;;
14167;SDS011;7163;50.626;12.922;2023-08-06T19:29:00;1.93;;;1.50;;
14167;SDS011;7163;50.626;12.922;2023-08-06T19:34:02;1.47;;;1.20;;
14167;SDS011;7163;50.626;12.922;2023-08-06T19:39:03;1.70;;;1.60;;
14167;SDS011;7163;50.626;12.922;2023-08-06T19:44:03;1.30;;;1.30;;
14167;SDS011;7163;50.626;12.922;2023-08-06T19:49:04;2.40;;;1.20;;
14167;SDS011;7163;50.626;12.922;2023-08-06T19:54:04;2.27;;;1.20;;
14167;SDS011;7163;50.626;12.922;2023-08-06T19:59:05;1.23;;;1.20;;
14167;SDS011;7163;50.626;12.922;2023-08-06T20:04:06;1.20;;;1.20;;
14167;SDS011;7163;50.626;12.922;2023-08-06T20:09:06;1.50;;;1.40;;
14167;SDS011;7163;50.626;12.922;2023-08-06T20:14:07;2.40;;;1.40;;
14167;SDS011;7163;50.626;12.922;2023-08-06T20:19:08;1.63;;;1.53;;
14167;SDS011;7163;50.626;12.922;2023-08-06T20:24:08;1.80;;;1.70;;
14167;SDS011;7163;50.626;12.922;2023-08-06T20:29:08;1.70;;;1.60;;
14167;SDS011;7163;50.626;12.922;2023-08-06T20:34:09;1.70;;;1.60;;
14167;SDS011;7163;50.626;12.922;2023-08-06T20:39:10;2.97;;;1.30;;
14167;SDS011;7163;50.626;12.922;2023-08-06T20:44:11;2.40;;;1.27;;
14167;SDS011;7163;50.626;12.922;2023-08-06T20:49:11;1.37;;;1.30;;
14167;SDS011;7163;50.626;12.922;2023-08-06T20:54:12;1.83;;;1.73;;
14167;SDS011;7163;50.626;12.922;2023-08-06T20:59:12;2.77;;;1.67;;
14167;SDS011;7163;50.626;12.922;2023-08-06T21:04:12;2.00;;;1.90;;
14167;SDS011;7163;50.626;12.922;2023-08-06T21:09:13;2.17;;;2.00;;
14167;SDS011;7163;50.626;12.922;2023-08-06T21:14:13;1.93;;;1.83;;
14167;SDS011;7163;50.626;12.922;2023-08-06T21:19:14;2.80;;;1.90;;
14167;SDS011;7163;50.626;12.922;2023-08-06T21:24:14;2.17;;;1.97;;
14167;SDS011;7163;50.626;12.922;2023-08-06T21:29:15;3.50;;;2.20;;
14167;SDS011;7163;50.626;12.922;2023-08-06T21:34:16;2.30;;;2.10;;
14167;SDS011;7163;50.626;12.922;2023-08-06T21:39:16;3.80;;;2.40;;
14167;SDS011;7163;50.626;12.922;2023-08-06T21:44:17;2.73;;;2.03;;
14167;SDS011;7163;50.626;12.922;2023-08-06T21:49:17;2.37;;;2.17;;
14167;SDS011;7163;50.626;12.922;2023-08-06T21:54:18;2.50;;;2.20;;
14167;SDS011;7163;50.626;12.922;2023-08-06T21:59:19;3.90;;;2.70;;
14167;SDS011;7163;50.626;12.922;2023-08-06T22:04:19;2.60;;;2.40;;
14167;SDS011;7163;50.626;12.922;2023-08-06T22:09:20;2.67;;;2.03;;
14167;SDS011;7163;50.626;12.922;2023-08-06T22:14:21;2.73;;;2.20;;
14167;SDS011;7163;50.626;12.922;2023-08-06T22:19:21;3.07;;;2.50;;
14167;SDS011;7163;50.626;12.922;2023-08-06T22:24:22;2.50;;;2.30;;
14167;SDS011;7163;50.626;12.922;2023-08-06T22:29:22;3.03;;;2.40;;
14167;SDS011;7163;50.626;12.922;2023-08-06T22:34:23;3.13;;;2.20;;
14167;SDS011;7163;50.626;12.922;2023-08-06T22:39:23;3.60;;;2.60;;
14167;SDS011;7163;50.626;12.922;2023-08-06T22:44:24;3.00;;;2.50;;
14167;SDS011;7163;50.626;12.922;2023-08-06T22:49:24;3.50;;;2.90;;
14167;SDS011;7163;50.626;12.922;2023-08-06T22:54:24;5.10;;;3.10;;
14167;SDS011;7163;50.626;12.922;2023-08-06T22:59:25;4.43;;;3.10;;
14167;SDS011;7163;50.626;12.922;2023-08-06T23:04:26;4.87;;;3.00;;
14167;SDS011;7163;50.626;12.922;2023-08-06T23:09:27;3.50;;;3.20;;
14167;SDS011;7163;50.626;12.922;2023-08-06T23:14:28;3.57;;;3.17;;
14167;SDS011;7163;50.626;12.922;2023-08-06T23:19:28;3.23;;;2.87;;
14167;SDS011;7163;50.626;12.922;2023-08-06T23:24:29;7.63;;;3.93;;
14167;SDS011;7163;50.626;12.922;2023-08-06T23:29:29;5.07;;;4.10;;
14167;SDS011;7163;50.626;12.922;2023-08-06T23:34:29;4.37;;;3.43;;
14167;SDS011;7163;50.626;12.922;2023-08-06T23:39:30;4.50;;;3.70;;
14167;SDS011;7163;50.626;12.922;2023-08-06T23:44:30;6.53;;;3.33;;
14167;SDS011;7163;50.626;12.922;2023-08-06T23:49:31;3.43;;;3.13;;
14167;SDS011;7163;50.626;12.922;2023-08-06T23:54:31;4.07;;;3.30;;
14167;SDS011;7163;50.626;12.922;2023-08-06T23:59:32;4.67;;;2.87;;
